Time;durP1;ratioP1;P1;durP2;ratioP2;P2;SDS_P1;SDS_P2;PMS_P1;PMS_P2;Temp;Humidity;BMP_temperature;BMP_pressure;BME280_temperature;BME280_humidity;BME280_pressure;Samples;Min_cycle;Max_cycle;Signal;HPM_P1;HPM_P2
2022/01/13 00:00:30;;;;;;;35.42;20.83;;;;;;;1.07;100.00;101488.16;4993535;28;20085;-81
2022/01/13 00:02:55;;;;;;;33.95;20.17;;;;;;;1.07;100.00;101485.59;5003351;28;20042;-81
2022/01/13 00:05:27;;;;;;;33.38;19.48;;;;;;;1.11;100.00;101495.94;5034656;28;20393;-81
2022/01/13 00:07:55;;;;;;;34.10;21.20;;;;;;;1.08;100.00;101500.16;5035103;28;20499;-81
2022/01/13 00:10:21;;;;;;;34.10;20.25;;;;;;;1.14;100.00;101490.03;5033954;28;20056;-81
2022/01/13 00:12:47;;;;;;;34.65;20.10;;;;;;;1.13;100.00;101483.13;5035329;28;20477;-81
2022/01/13 00:17:57;;;;;;;37.28;21.30;;;;;;;1.13;100.00;101473.75;5035072;28;20080;-81
2022/01/13 00:23:39;;;;;;;30.90;18.98;;;;;;;1.03;100.00;101458.13;5034841;28;20248;-81
2022/01/13 00:25:37;;;;;;;37.65;20.67;;;;;;;1.19;100.00;101493.56;5034784;28;20033;-81
2022/01/13 00:28:12;;;;;;;35.05;20.67;;;;;;;1.17;100.00;101500.34;5033770;28;20381;-81
2022/01/13 00:30:37;;;;;;;34.92;19.70;;;;;;;1.11;100.00;101477.13;5034837;28;20032;-81
2022/01/13 00:33:02;;;;;;;35.92;19.98;;;;;;;1.09;100.00;101479.63;5034945;28;20033;-82
2022/01/13 00:35:28;;;;;;;33.75;19.42;;;;;;;1.18;100.00;101500.38;5033517;28;20028;-81
2022/01/13 00:37:53;;;;;;;34.63;19.80;;;;;;;1.17;100.00;101487.50;5033437;28;20314;-82
2022/01/13 00:40:19;;;;;;;37.35;20.35;;;;;;;1.18;100.00;101513.22;5034869;28;20417;-82
2022/01/13 00:42:44;;;;;;;30.90;19.40;;;;;;;1.18;100.00;101507.19;5033311;28;20120;-81
2022/01/13 00:45:14;;;;;;;31.92;19.30;;;;;;;1.21;100.00;101518.41;5035118;28;20492;-82
2022/01/13 00:47:40;;;;;;;29.02;19.13;;;;;;;1.21;100.00;101514.97;5033106;28;20052;-81
2022/01/13 00:50:06;;;;;;;28.88;18.33;;;;;;;1.18;100.00;101509.75;5035224;28;20032;-81
2022/01/13 00:52:32;;;;;;;33.67;18.83;;;;;;;1.18;100.00;101518.34;5033392;28;20117;-81
2022/01/13 00:54:58;;;;;;;30.33;18.38;;;;;;;1.13;100.00;101521.63;5033010;28;20115;-81
2022/01/13 00:57:27;;;;;;;33.90;19.42;;;;;;;1.21;100.00;101545.78;5033210;28;20087;-81
2022/01/13 00:59:53;;;;;;;29.88;17.60;;;;;;;1.21;100.00;101543.19;5032870;28;20025;-81
2022/01/13 01:02:18;;;;;;;32.08;18.77;;;;;;;1.24;100.00;101554.41;5034349;28;20120;-81
2022/01/13 01:04:44;;;;;;;28.60;18.23;;;;;;;1.20;100.00;101541.47;5034133;28;20030;-82
2022/01/13 01:07:09;;;;;;;30.48;18.42;;;;;;;1.17;100.00;101508.91;5034444;28;20025;-81
2022/01/13 01:09:48;;;;;;;32.83;19.45;;;;;;;1.29;100.00;101499.75;5032742;28;20118;-81
2022/01/13 01:12:13;;;;;;;32.25;19.55;;;;;;;1.20;100.00;101480.75;5034363;28;20573;-82
2022/01/13 01:14:46;;;;;;;30.02;18.55;;;;;;;1.12;100.00;101456.63;5032750;28;20041;-81
2022/01/13 01:17:15;;;;;;;29.98;17.95;;;;;;;1.27;100.00;101484.31;5032790;28;20030;-81
2022/01/13 01:19:43;;;;;;;31.77;18.85;;;;;;;1.16;100.00;101465.25;5032755;28;20026;-82
2022/01/13 01:25:20;;;;;;;29.27;19.38;;;;;;;1.21;100.00;101467.06;5033933;28;20095;-81
2022/01/13 01:27:47;;;;;;;33.15;19.30;;;;;;;1.25;100.00;101471.44;5033483;28;20124;-81
2022/01/13 01:30:33;;;;;;;34.60;20.73;;;;;;;1.24;100.00;101459.44;5034134;28;20205;-82
2022/01/13 01:32:59;;;;;;;38.40;21.42;;;;;;;1.09;100.00;101430.03;5033810;28;20041;-82
2022/01/13 01:35:27;;;;;;;41.38;22.38;;;;;;;1.23;100.00;101447.44;5033962;28;20104;-81
2022/01/13 01:37:53;;;;;;;36.55;22.42;;;;;;;1.18;100.00;101435.34;5032150;28;20083;-81
2022/01/13 01:40:19;;;;;;;40.75;23.70;;;;;;;1.21;100.00;101438.84;5032647;28;20021;-82
2022/01/13 01:42:46;;;;;;;38.03;21.67;;;;;;;1.22;100.00;101439.69;5032295;28;20029;-82
2022/01/13 01:45:13;;;;;;;39.65;22.80;;;;;;;1.16;100.00;101427.63;5032319;28;20025;-82
2022/01/13 01:47:40;;;;;;;32.58;20.67;;;;;;;1.25;100.00;101444.91;5020401;28;20049;-82
2022/01/13 01:50:18;;;;;;;33.25;20.23;;;;;;;1.21;100.00;101441.41;5013762;28;20022;-82
2022/01/13 01:52:45;;;;;;;31.08;19.98;;;;;;;1.10;100.00;101426.66;5013732;28;20030;-82
2022/01/13 01:55:11;;;;;;;31.45;20.42;;;;;;;1.22;100.00;101449.97;4991676;28;20049;-81
2022/01/13 01:57:37;;;;;;;33.75;21.33;;;;;;;1.20;100.00;101446.50;4991871;28;20484;-81
2022/01/13 02:00:08;;;;;;;32.88;21.02;;;;;;;1.17;100.00;101437.03;4991510;28;20038;-81
2022/01/13 02:02:34;;;;;;;34.25;19.70;;;;;;;1.19;100.00;101437.09;4991451;28;20125;-81
2022/01/13 02:04:59;;;;;;;32.83;20.58;;;;;;;1.19;100.00;101445.66;4991290;28;20041;-81
2022/01/13 02:07:24;;;;;;;33.95;21.25;;;;;;;1.15;100.00;101450.69;4975085;28;20474;-81
2022/01/13 02:09:52;;;;;;;36.75;22.30;;;;;;;1.13;100.00;101447.22;4991227;28;20038;-81
2022/01/13 02:12:30;;;;;;;35.92;21.42;;;;;;;1.15;100.00;101454.13;4991358;28;20133;-81
2022/01/13 02:14:59;;;;;;;37.03;20.35;;;;;;;1.14;100.00;101452.41;4991192;28;20034;-81
2022/01/13 02:17:28;;;;;;;36.88;22.40;;;;;;;1.05;100.00;101436.78;4991230;28;20187;-81
2022/01/13 02:19:56;;;;;;;37.15;22.05;;;;;;;1.15;100.00;101456.69;4974675;28;20026;-81
2022/01/13 02:22:23;;;;;;;35.17;22.63;;;;;;;1.13;100.00;101448.06;4990503;28;20122;-81
2022/01/13 02:24:49;;;;;;;36.05;21.77;;;;;;;1.12;100.00;101456.63;4991085;28;20121;-81
2022/01/13 02:27:14;;;;;;;34.47;22.35;;;;;;;1.09;100.00;101446.28;5011968;28;20470;-81
2022/01/13 02:29:40;;;;;;;39.15;21.92;;;;;;;1.13;100.00;101458.34;4995183;28;20025;-81
2022/01/13 02:32:06;;;;;;;36.60;22.65;;;;;;;1.11;100.00;101452.31;4995229;28;20030;-81
2022/01/13 02:34:32;;;;;;;43.03;24.08;;;;;;;1.10;100.00;101448.03;5013047;28;20022;-81
2022/01/13 02:36:58;;;;;;;38.17;23.67;;;;;;;1.13;100.00;101458.34;4995164;28;20034;-81
2022/01/13 02:39:27;;;;;;;37.80;23.33;;;;;;;1.14;100.00;101451.53;5013193;28;20077;-82
2022/01/13 02:41:53;;;;;;;40.50;25.20;;;;;;;1.15;100.00;101461.81;4995069;28;20029;-81
2022/01/13 02:44:22;;;;;;;37.03;23.55;;;;;;;1.12;100.00;101448.06;5012657;28;20037;-81
2022/01/13 02:49:17;;;;;;;37.67;24.45;;;;;;;1.15;100.00;101456.69;5012887;28;20045;-81
2022/01/13 02:51:45;;;;;;;40.60;25.13;;;;;;;1.17;100.00;101457.56;4994950;28;20030;-81
2022/01/13 02:54:11;;;;;;;40.45;23.60;;;;;;;1.15;100.00;101454.13;5013033;28;20034;-82
2022/01/13 02:56:38;;;;;;;37.50;23.73;;;;;;;1.20;100.00;101472.19;4995012;28;20048;-81
2022/01/13 02:59:05;;;;;;;41.90;25.98;;;;;;;1.05;100.00;101444.47;5012264;28;20034;-81
2022/01/13 03:01:31;;;;;;;34.60;23.67;;;;;;;1.00;100.00;101430.69;4995032;28;20398;-81
2022/01/13 03:03:57;;;;;;;34.33;22.52;;;;;;;1.04;100.00;101445.31;4994750;28;20037;-82
2022/01/13 03:06:34;;;;;;;32.63;22.48;;;;;;;1.13;100.00;101455.78;5012577;28;20036;-81
2022/01/13 03:08:59;;;;;;;36.17;23.92;;;;;;;1.09;100.00;101456.53;5012185;28;20377;-81
2022/01/13 03:11:32;;;;;;;33.25;22.58;;;;;;;0.93;100.00;101436.56;5012226;28;20040;-81
2022/01/13 03:13:58;;;;;;;33.50;22.38;;;;;;;0.99;100.00;101447.78;5012239;28;20022;-81
2022/01/13 03:16:24;;;;;;;30.45;20.63;;;;;;;1.05;100.00;101454.75;5012483;28;20026;-81
2022/01/13 03:18:49;;;;;;;35.67;22.52;;;;;;;1.02;100.00;101453.84;5012079;28;20080;-81
2022/01/13 03:21:14;;;;;;;34.95;22.00;;;;;;;0.99;100.00;101434.97;5012227;28;20038;-81
2022/01/13 03:23:40;;;;;;;32.90;20.73;;;;;;;1.05;100.00;101443.63;4990012;28;20034;-81
2022/01/13 03:26:06;;;;;;;37.30;23.15;;;;;;;0.98;100.00;101433.25;4989730;28;20038;-81
2022/01/13 03:28:38;;;;;;;28.02;19.70;;;;;;;1.00;100.00;101435.81;4989970;28;20453;-81
2022/01/13 03:31:05;;;;;;;32.53;21.05;;;;;;;0.92;100.00;101435.66;4989903;28;20146;-81
2022/01/13 03:33:31;;;;;;;29.50;20.02;;;;;;;1.02;100.00;101436.75;4973865;28;20046;-81
2022/01/13 03:35:57;;;;;;;30.52;20.77;;;;;;;0.98;100.00;101432.38;4989823;28;20031;-81
2022/01/13 03:38:24;;;;;;;31.90;20.15;;;;;;;0.97;100.00;101425.53;4989910;28;20042;-81
2022/01/13 03:40:50;;;;;;;26.98;19.55;;;;;;;1.02;100.00;101430.75;4990084;28;20338;-81
2022/01/13 03:43:16;;;;;;;30.40;20.67;;;;;;;1.03;100.00;101440.16;4990273;28;20042;-81
2022/01/13 03:45:42;;;;;;;31.45;20.38;;;;;;;0.98;100.00;101422.97;4990404;28;20594;-81
2022/01/13 03:48:09;;;;;;;32.28;20.08;;;;;;;0.97;100.00;101421.25;5007481;28;20053;-81
2022/01/13 03:50:35;;;;;;;34.65;22.65;;;;;;;1.03;100.00;101428.19;5029372;28;20033;-81
2022/01/13 03:53:04;;;;;;;33.83;21.92;;;;;;;1.05;100.00;101433.34;5012510;28;20117;-81
2022/01/13 03:55:38;;;;;;;33.35;20.90;;;;;;;1.05;100.00;101430.78;5031150;28;20033;-81
2022/01/13 03:58:14;;;;;;;34.80;21.90;;;;;;;1.05;100.00;101441.06;5031384;28;20036;-81
2022/01/13 04:01:09;;;;;;;34.72;21.63;;;;;;;1.04;100.00;101437.63;5030471;28;20037;-81
2022/01/13 04:03:35;;;;;;;33.85;20.83;;;;;;;1.06;100.00;101435.97;5030170;28;20036;-81
2022/01/13 04:06:10;;;;;;;35.72;21.45;;;;;;;0.94;100.00;101418.63;5030214;28;20030;-81
2022/01/13 04:08:36;;;;;;;31.42;21.10;;;;;;;0.95;100.00;101404.09;5030218;28;20389;-81
2022/01/13 04:11:04;;;;;;;34.28;21.23;;;;;;;1.08;100.00;101430.88;5031338;28;20024;-81
2022/01/13 04:16:27;;;;;;;39.05;20.13;;;;;;;1.06;100.00;101432.53;4989731;28;20379;-81
2022/01/13 04:18:55;;;;;;;31.98;19.80;;;;;;;1.06;100.00;101406.88;4989435;28;20038;-81
2022/01/13 04:21:21;;;;;;;36.25;21.15;;;;;;;0.99;100.00;101381.09;4973374;28;20116;-81
2022/01/13 04:23:48;;;;;;;30.40;20.75;;;;;;;1.12;100.00;101400.16;4989682;28;20034;-81
2022/01/13 04:26:18;;;;;;;33.60;21.65;;;;;;;1.03;100.00;101376.03;4973375;28;20414;-81
2022/01/13 04:28:45;;;;;;;29.13;19.58;;;;;;;1.08;100.00;101392.38;4973078;28;20270;-81
2022/01/13 04:31:11;;;;;;;31.27;20.55;;;;;;;1.02;100.00;101377.72;4973273;28;20022;-81
2022/01/13 04:33:38;;;;;;;35.05;21.67;;;;;;;1.13;100.00;101393.31;4973266;28;20049;-81
2022/01/13 04:36:06;;;;;;;37.08;21.42;;;;;;;1.06;100.00;101365.81;4989333;28;20042;-81
2022/01/13 04:38:31;;;;;;;32.28;21.70;;;;;;;1.08;100.00;101372.69;4973418;28;20441;-81
2022/01/13 04:41:00;;;;;;;31.45;20.98;;;;;;;1.14;100.00;101377.13;4989141;28;20038;-81
2022/01/13 04:43:29;;;;;;;32.33;20.52;;;;;;;1.14;100.00;101352.31;4989474;28;20034;-81
2022/01/13 04:45:54;;;;;;;30.58;19.25;;;;;;;1.05;100.00;101335.84;4975347;28;20129;-81
2022/01/13 04:48:20;;;;;;;30.15;19.77;;;;;;;0.98;100.00;101322.91;4976303;28;20605;-81
2022/01/13 04:50:46;;;;;;;36.85;20.42;;;;;;;1.19;100.00;101352.41;4976232;28;20030;-81
2022/01/13 04:53:12;;;;;;;33.00;20.52;;;;;;;1.16;100.00;101344.63;5011553;28;20041;-81
2022/01/13 04:55:38;;;;;;;32.42;20.75;;;;;;;1.21;100.00;101355.84;5033287;28;20152;-81
2022/01/13 04:58:05;;;;;;;39.22;22.20;;;;;;;1.21;100.00;101343.88;5033185;28;20499;-81
2022/01/13 05:00:32;;;;;;;35.40;22.00;;;;;;;1.13;100.00;101334.28;5034682;28;20100;-81
2022/01/13 05:02:58;;;;;;;37.65;24.25;;;;;;;1.21;100.00;101337.88;5034651;28;20503;-81
2022/01/13 05:05:24;;;;;;;39.92;21.40;;;;;;;1.23;100.00;101349.06;5034533;28;20104;-81
2022/01/13 05:07:49;;;;;;;55.63;30.83;;;;;;;1.23;100.00;101342.22;5032829;28;20034;-81
2022/01/13 05:10:15;;;;;;;49.13;28.55;;;;;;;1.25;100.00;101335.38;5034285;28;20033;-81
2022/01/13 05:12:46;;;;;;;31.85;21.15;;;;;;;1.23;100.00;101323.38;5034552;28;20029;-81
2022/01/13 05:15:17;;;;;;;33.22;20.23;;;;;;;1.25;100.00;101329.41;5033212;28;20544;-81
2022/01/13 05:20:39;;;;;;;33.17;19.55;;;;;;;1.23;100.00;101320.81;5034291;28;20052;-81
2022/01/13 05:23:06;;;;;;;32.17;20.55;;;;;;;1.23;100.00;101331.94;5031788;28;20037;-81
2022/01/13 05:25:31;;;;;;;52.22;34.03;;;;;;;1.14;100.00;101328.34;5032971;28;20025;-81
2022/01/13 05:27:57;;;;;;;35.40;23.02;;;;;;;1.33;100.00;101357.78;5033596;28;20035;-81
2022/01/13 05:30:22;;;;;;;30.90;22.08;;;;;;;1.28;100.00;101342.28;5032857;28;20025;-81
2022/01/13 05:32:47;;;;;;;34.33;21.15;;;;;;;1.31;100.00;101344.94;5034035;28;20039;-81
2022/01/13 05:35:15;;;;;;;28.85;19.83;;;;;;;1.37;100.00;101346.72;5032684;28;20029;-81
2022/01/13 05:37:41;;;;;;;31.98;20.73;;;;;;;1.32;100.00;101341.50;5034309;28;20025;-81
2022/01/13 05:40:07;;;;;;;36.33;21.42;;;;;;;1.36;100.00;101353.56;5032534;28;20634;-82
2022/01/13 05:42:33;;;;;;;28.83;19.30;;;;;;;1.35;100.00;101345.81;5033711;28;20467;-81
2022/01/13 05:44:59;;;;;;;26.02;19.13;;;;;;;1.38;100.00;101331.34;5032452;28;20029;-81
2022/01/13 05:47:25;;;;;;;31.98;19.70;;;;;;;1.30;100.00;101314.94;5032412;28;20049;-81
2022/01/13 05:49:51;;;;;;;29.58;19.58;;;;;;;1.40;100.00;101321.13;5033457;28;20021;-81
2022/01/13 05:52:17;;;;;;;28.10;19.08;;;;;;;1.42;100.00;101325.41;5034068;28;20068;-81
2022/01/13 05:54:42;;;;;;;31.02;20.00;;;;;;;1.41;100.00;101318.56;5033655;28;20025;-81
2022/01/13 05:57:08;;;;;;;28.92;18.75;;;;;;;1.45;100.00;101328.06;5032285;28;20113;-81
2022/01/13 05:59:34;;;;;;;29.23;19.83;;;;;;;1.47;100.00;101317.78;5032179;28;20026;-81
2022/01/13 06:02:00;;;;;;;27.35;18.67;;;;;;;1.39;100.00;101302.28;5033253;28;20029;-81
2022/01/13 06:04:25;;;;;;;30.45;18.70;;;;;;;1.45;100.00;101314.34;5031870;28;20033;-79
2022/01/13 06:06:51;;;;;;;29.23;19.50;;;;;;;1.45;100.00;101317.78;5031839;28;20362;-79
2022/01/13 06:09:16;;;;;;;30.02;19.83;;;;;;;1.48;100.00;101332.38;5033630;28;20053;-80
2022/01/13 06:11:51;;;;;;;31.38;19.05;;;;;;;1.45;100.00;101317.78;5033415;28;20044;-79
2022/01/13 06:14:17;;;;;;;28.45;18.90;;;;;;;1.57;100.00;101342.81;5032002;28;20112;-79
2022/01/13 06:16:43;;;;;;;28.13;18.67;;;;;;;1.58;100.00;101330.84;5033147;28;20125;-79
2022/01/13 06:19:08;;;;;;;26.77;18.77;;;;;;;1.61;100.00;101321.47;5032753;28;20025;-79
2022/01/13 06:21:33;;;;;;;33.53;19.35;;;;;;;1.66;100.00;101324.13;5033262;28;20113;-79
2022/01/13 06:23:59;;;;;;;30.70;18.60;;;;;;;1.66;100.00;101319.00;5031510;28;20018;-79
2022/01/13 06:26:24;;;;;;;29.70;18.95;;;;;;;1.66;100.00;101324.13;5033017;28;20025;-79
2022/01/13 06:28:50;;;;;;;31.20;20.60;;;;;;;1.61;100.00;101313.78;5032442;28;20500;-79
2022/01/13 06:31:15;;;;;;;29.92;18.42;;;;;;;1.73;100.00;101329.41;5031781;28;20380;-79
2022/01/13 06:33:40;;;;;;;30.00;18.60;;;;;;;1.75;100.00;101325.13;5033213;28;20361;-79
2022/01/13 06:36:07;;;;;;;30.90;18.70;;;;;;;1.80;100.00;101335.47;5031323;28;20025;-79
2022/01/13 06:38:33;;;;;;;29.20;17.95;;;;;;;1.71;100.00;101317.34;5033075;28;20559;-79
2022/01/13 06:40:58;;;;;;;26.58;18.85;;;;;;;1.84;100.00;101337.25;5031290;28;20104;-79
2022/01/13 06:43:25;;;;;;;30.48;18.48;;;;;;;1.88;100.00;101345.88;5031253;28;20017;-79
2022/01/13 06:45:51;;;;;;;31.27;19.90;;;;;;;1.79;100.00;101320.91;5031093;28;20428;-79
2022/01/13 06:48:24;;;;;;;31.02;19.95;;;;;;;1.74;100.00;101320.84;5014039;28;20049;-81
2022/01/13 06:50:49;;;;;;;27.83;19.05;;;;;;;1.90;100.00;101342.50;5012868;28;20029;-82
2022/01/13 06:53:15;;;;;;;30.25;18.58;;;;;;;1.96;100.00;101345.16;5012681;28;20461;-81
2022/01/13 06:55:41;;;;;;;29.13;17.75;;;;;;;1.92;100.00;101350.22;5012570;28;20030;-82
2022/01/13 06:58:06;;;;;;;27.67;17.38;;;;;;;1.97;100.00;101356.31;5012390;28;20060;-82
2022/01/13 07:00:33;;;;;;;31.38;19.23;;;;;;;1.97;100.00;101346.88;5012538;28;20501;-82
2022/01/13 07:03:01;;;;;;;27.08;18.48;;;;;;;1.95;100.00;101350.28;4970509;28;20549;-82
2022/01/13 07:05:29;;;;;;;29.83;19.48;;;;;;;1.91;100.00;101349.38;4970905;28;20031;-82
2022/01/13 07:07:54;;;;;;;32.33;19.00;;;;;;;2.00;100.00;101359.78;4970510;28;20364;-82
2022/01/13 07:10:20;;;;;;;31.00;19.27;;;;;;;1.90;100.00;101331.38;4970757;28;20050;-82
2022/01/13 07:12:46;;;;;;;33.67;19.83;;;;;;;1.94;100.00;101321.16;4970992;28;20039;-82
2022/01/13 07:15:12;;;;;;;26.70;17.63;;;;;;;2.02;100.00;101339.25;4954460;28;20045;-82
2022/01/13 07:17:39;;;;;;;25.13;17.48;;;;;;;2.04;100.00;101350.44;4970834;28;20034;-81
2022/01/13 07:20:05;;;;;;;24.75;16.92;;;;;;;2.03;100.00;101343.56;4970614;28;20114;-81
2022/01/13 07:22:32;;;;;;;29.55;19.13;;;;;;;2.05;100.00;101326.44;4971028;28;20491;-81
2022/01/13 07:25:00;;;;;;;29.20;17.88;;;;;;;2.06;100.00;101293.91;4970641;28;20031;-81
2022/01/13 07:27:26;;;;;;;29.15;17.80;;;;;;;2.10;100.00;101283.69;4951012;29;20046;-81
2022/01/13 07:29:51;;;;;;;26.02;16.85;;;;;;;2.14;100.00;101282.88;4931998;29;20039;-81
2022/01/13 07:32:16;;;;;;;26.25;16.70;;;;;;;2.02;100.00;101257.00;4916467;29;20056;-81
2022/01/13 07:34:42;;;;;;;27.15;16.55;;;;;;;2.16;100.00;101285.50;4932305;29;20115;-81
2022/01/13 07:37:08;;;;;;;28.30;17.40;;;;;;;2.10;100.00;101272.53;4932036;29;20047;-81
2022/01/13 07:39:35;;;;;;;25.25;15.70;;;;;;;2.17;100.00;101290.63;4916204;29;20146;-81
2022/01/13 07:42:05;;;;;;;32.00;16.55;;;;;;;2.20;100.00;101282.13;4916039;29;20448;-82
2022/01/13 07:44:30;;;;;;;24.90;16.10;;;;;;;2.13;100.00;101267.44;4916050;29;20071;-81
2022/01/13 07:46:58;;;;;;;25.83;16.02;;;;;;;2.20;100.00;101280.41;4916738;29;20488;-81
2022/01/13 07:49:24;;;;;;;28.88;17.40;;;;;;;2.25;100.00;101291.63;4913247;29;20071;-81
2022/01/13 07:51:49;;;;;;;26.50;16.98;;;;;;;2.31;100.00;101301.09;4913239;29;20170;-81
2022/01/13 07:54:14;;;;;;;28.63;17.45;;;;;;;2.30;100.00;101289.09;4929904;29;20044;-81
2022/01/13 07:56:40;;;;;;;27.48;17.25;;;;;;;2.29;100.00;101277.09;4916044;29;20105;-82
2022/01/13 07:59:06;;;;;;;28.63;17.52;;;;;;;2.31;100.00;101271.97;4915843;29;20034;-82
2022/01/13 08:01:31;;;;;;;26.00;16.98;;;;;;;2.32;100.00;101268.53;4923097;29;20058;-82
2022/01/13 08:03:56;;;;;;;26.55;15.50;;;;;;;2.38;100.00;101266.94;4931724;29;20541;-81
2022/01/13 08:06:22;;;;;;;26.65;15.80;;;;;;;2.42;100.00;101265.25;4931940;29;20044;-82
2022/01/13 08:08:50;;;;;;;24.50;16.38;;;;;;;2.46;100.00;101274.75;4931876;29;20087;-81
2022/01/13 08:11:16;;;;;;;26.33;16.45;;;;;;;2.36;100.00;101242.03;4915752;29;20465;-82
2022/01/13 08:13:43;;;;;;;25.67;15.88;;;;;;;2.47;100.00;101261.03;4931901;29;20081;-81
2022/01/13 08:16:10;;;;;;;28.30;16.65;;;;;;;2.47;100.00;101267.03;4931525;29;20142;-82
2022/01/13 08:21:25;;;;;;;27.17;17.33;;;;;;;2.52;100.00;101269.66;4973846;28;20101;-81
2022/01/13 08:23:51;;;;;;;25.58;15.50;;;;;;;2.54;100.00;101259.41;4978973;28;20687;-81
2022/01/13 08:26:18;;;;;;;24.33;15.52;;;;;;;2.55;100.00;101256.00;4973726;28;20913;-81
2022/01/13 08:28:45;;;;;;;25.60;16.17;;;;;;;2.59;100.00;101260.31;4973846;28;20031;-81
2022/01/13 08:31:11;;;;;;;32.45;17.15;;;;;;;2.67;100.00;101279.28;4973693;28;20042;-82
2022/01/13 08:33:52;;;;;;;27.85;16.50;;;;;;;2.72;100.00;101298.19;5015399;28;20033;-81
2022/01/13 08:36:17;;;;;;;26.25;15.85;;;;;;;2.71;100.00;101279.34;4949175;28;20041;-81
2022/01/13 08:38:45;;;;;;;26.15;17.77;;;;;;;2.66;100.00;101270.72;4988209;28;20062;-81
2022/01/13 08:41:13;;;;;;;27.40;16.83;;;;;;;2.80;100.00;101288.00;4997199;28;20042;-81
2022/01/13 08:43:40;;;;;;;28.55;18.08;;;;;;;2.79;100.00;101276.84;5008685;28;20405;-82
2022/01/13 08:46:06;;;;;;;28.38;17.42;;;;;;;2.79;100.00;101284.56;4973091;28;20046;-81
2022/01/13 08:48:36;;;;;;;27.45;16.95;;;;;;;2.80;100.00;101291.44;4955531;28;20106;-81
2022/01/13 08:51:04;;;;;;;28.27;17.02;;;;;;;2.74;100.00;101286.25;4954044;29;20043;-82
2022/01/13 08:53:29;;;;;;;30.35;17.48;;;;;;;2.81;100.00;101290.59;4938188;29;20177;-82
2022/01/13 08:55:58;;;;;;;32.80;19.52;;;;;;;2.81;100.00;101288.00;4934677;29;20135;-82
2022/01/13 08:58:25;;;;;;;31.17;18.38;;;;;;;2.72;100.00;101264.75;4903732;29;20047;-81
2022/01/13 09:00:52;;;;;;;26.85;16.13;;;;;;;2.87;100.00;101288.09;4934913;29;20122;-81
2022/01/13 09:03:26;;;;;;;27.20;16.63;;;;;;;2.83;100.00;101273.47;4934638;29;20062;-81
2022/01/13 09:05:53;;;;;;;35.08;19.20;;;;;;;2.85;100.00;101269.19;4918793;29;20539;-81
2022/01/13 09:08:20;;;;;;;26.55;17.13;;;;;;;2.85;100.00;101276.03;4903165;29;20122;-82
2022/01/13 09:10:51;;;;;;;31.65;16.02;;;;;;;2.77;100.00;101265.66;4934718;29;20054;-82
2022/01/13 09:13:22;;;;;;;;;;;;;;;2.85;100.00;101274.34;4934783;29;20122;-82
2022/01/13 09:15:58;;;;;;;24.40;16.67;;;;;;;2.81;100.00;101267.44;4934770;29;20033;-82
2022/01/13 09:21:25;;;;;;;23.65;14.32;;;;;;;2.87;100.00;101272.66;4859255;29;20364;-82
2022/01/13 09:23:56;;;;;;;25.50;16.45;;;;;;;2.82;100.00;101243.41;4859158;29;20053;-82
2022/01/13 09:26:23;;;;;;;26.80;15.85;;;;;;;2.94;100.00;101261.56;4859017;29;20106;-81
2022/01/13 09:28:49;;;;;;;24.80;16.40;;;;;;;2.89;100.00;101249.50;4859166;29;20053;-81
2022/01/13 09:31:15;;;;;;;21.08;16.30;;;;;;;2.96;100.00;101275.31;4865942;29;20136;-82
2022/01/13 09:33:45;;;;;;;25.35;15.70;;;;;;;2.95;100.00;101270.13;4889729;29;20044;-82
2022/01/13 09:36:11;;;;;;;32.80;19.02;;;;;;;2.91;100.00;101264.13;4911280;29;20040;-82
2022/01/13 09:38:39;;;;;;;27.70;18.15;;;;;;;2.96;100.00;101284.75;4918283;29;20047;-82
2022/01/13 09:41:06;;;;;;;29.08;16.52;;;;;;;2.97;100.00;101279.63;4933989;29;20111;-82
2022/01/13 09:43:33;;;;;;;28.33;15.55;;;;;;;2.96;100.00;101285.63;4934104;29;20036;-81
2022/01/13 09:46:00;;;;;;;37.83;21.48;;;;;;;2.87;100.00;101274.38;4896038;29;20495;-82
2022/01/13 09:48:26;;;;;;;26.33;17.38;;;;;;;2.93;100.00;101285.56;4895872;29;20555;-82
2022/01/13 09:50:54;;;;;;;29.30;18.35;;;;;;;2.98;100.00;101295.91;4896197;29;20036;-82
2022/01/13 09:53:22;;;;;;;27.98;18.73;;;;;;;2.99;100.00;101288.22;4895873;29;20033;-82
2022/01/13 09:55:48;;;;;;;39.88;24.75;;;;;;;2.93;100.00;101262.41;4880205;29;20037;-81
2022/01/13 09:58:14;;;;;;;24.05;15.10;;;;;;;2.97;100.00;101282.19;4949034;28;20748;-82
2022/01/13 10:00:42;;;;;;;30.55;19.30;;;;;;;2.95;100.00;101263.31;4972360;28;20038;-82
2022/01/13 10:03:17;;;;;;;24.35;15.50;;;;;;;3.03;100.00;101276.22;4971878;28;20125;-81
2022/01/13 10:05:58;;;;;;;44.92;25.65;;;;;;;2.97;100.00;101256.44;4972098;28;20046;-81
2022/01/13 10:08:43;;;;;;;32.40;19.98;;;;;;;3.09;100.00;101262.56;4971962;28;20092;-81
2022/01/13 10:11:23;;;;;;;85.32;43.03;;;;;;;3.14;100.00;101258.34;4971924;28;20101;-81
2022/01/13 10:17:17;;;;;;;25.80;18.52;;;;;;;3.19;100.00;101249.78;4923111;29;20032;-82
2022/01/13 10:19:46;;;;;;;30.42;20.17;;;;;;;3.23;100.00;101253.25;4916491;29;20134;-82
2022/01/13 10:22:14;;;;;;;26.42;17.30;;;;;;;3.19;100.00;101251.50;4933115;29;20059;-82
2022/01/13 10:24:42;;;;;;;31.50;22.00;;;;;;;3.25;100.00;101247.28;4917550;29;20063;-82
2022/01/13 10:27:19;;;;;;;30.67;19.60;;;;;;;3.29;100.00;101253.34;4933093;29;20118;-81
2022/01/13 10:30:02;;;;;;;29.55;19.77;;;;;;;3.19;100.00;101231.78;4930754;29;20046;-81
2022/01/13 10:32:38;;;;;;;26.88;17.48;;;;;;;3.32;100.00;101252.47;4933328;29;20412;-82
2022/01/13 10:35:14;;;;;;;29.70;16.95;;;;;;;3.23;100.00;101224.94;4932908;29;20436;-81
2022/01/13 10:37:58;;;;;;;29.65;19.48;;;;;;;3.33;100.00;101234.50;4917362;29;20126;-81
2022/01/13 10:40:28;;;;;;;31.88;18.92;;;;;;;3.34;100.00;101243.06;4932969;29;20055;-82
2022/01/13 10:45:29;;;;;;;27.92;18.27;;;;;;;3.25;100.00;101213.81;4932751;29;20039;-82
2022/01/13 10:47:58;;;;;;;26.00;16.87;;;;;;;3.27;100.00;101205.22;4942379;28;20106;-82
2022/01/13 10:50:30;;;;;;;46.15;32.97;;;;;;;3.34;100.00;101210.44;4971087;28;20129;-82
2022/01/13 10:53:02;;;;;;;31.20;19.20;;;;;;;3.40;100.00;101201.91;4983758;28;20259;-81
2022/01/13 10:55:28;;;;;;;22.70;15.32;;;;;;;3.29;100.00;101182.91;5032185;28;20025;-82
2022/01/13 10:57:55;;;;;;;35.95;23.30;;;;;;;3.38;100.00;101207.03;5032358;28;20392;-82
2022/01/13 11:00:24;;;;;;;31.60;21.77;;;;;;;3.25;100.00;101166.59;5030636;28;20029;-81
2022/01/13 11:03:06;;;;;;;40.55;29.35;;;;;;;3.43;100.00;101200.22;5032572;28;20104;-82
2022/01/13 11:05:34;;;;;;;28.05;16.00;;;;;;;3.41;100.00;101199.34;5032495;28;20026;-82
2022/01/13 11:08:06;;;;;;;34.20;22.92;;;;;;;3.36;100.00;101182.97;5047444;28;20155;-81
2022/01/13 11:10:33;;;;;;;28.85;17.77;;;;;;;3.40;100.00;101197.59;5030855;28;20029;-82
2022/01/13 11:13:04;;;;;;;32.15;22.83;;;;;;;3.33;100.00;101170.09;5032091;28;20026;-81
2022/01/13 11:15:38;;;;;;;26.20;17.33;;;;;;;3.28;100.00;101163.16;5031032;28;20025;-82
2022/01/13 11:18:05;;;;;;;22.15;15.55;;;;;;;3.42;100.00;101190.78;5029969;28;20555;-82
2022/01/13 11:20:31;;;;;;;21.02;15.10;;;;;;;3.35;100.00;101154.66;5030819;28;20037;-82
2022/01/13 11:22:57;;;;;;;27.38;16.95;;;;;;;3.53;100.00;101183.09;5032099;28;20025;-82
2022/01/13 11:25:34;;;;;;;26.08;16.00;;;;;;;3.53;100.00;101174.50;5030384;28;20071;-82
2022/01/13 11:28:00;;;;;;;23.30;15.15;;;;;;;3.53;100.00;101165.06;5046364;28;20041;-81
2022/01/13 11:30:27;;;;;;;22.92;15.35;;;;;;;3.48;100.00;101164.19;5030525;28;20800;-82
2022/01/13 11:32:55;;;;;;;22.60;16.35;;;;;;;3.57;100.00;101166.81;5029326;28;20033;-82
2022/01/13 11:35:26;;;;;;;22.50;16.30;;;;;;;3.61;100.00;101173.72;5029205;28;20045;-82
2022/01/13 11:37:56;;;;;;;24.63;17.13;;;;;;;3.62;100.00;101169.41;5029394;28;20048;-82
2022/01/13 11:40:32;;;;;;;21.60;14.63;;;;;;;3.65;100.00;101170.28;5012665;28;20477;-83